Map

Track Data

SID SEASON NUMBER BASIN SUBBASIN NAME ISO_TIME NATURE LAT LON WMO_WIND WMO_PRES WMO_AGENCY TRACK_TYPE DIST2LAND LANDFALL IFLAG USA_AGENCY USA_ATCF_ID USA_LAT USA_LON USA_RECORD USA_STATUS USA_WIND USA_PRES USA_SSHS USA_R34_NE USA_R34_SE USA_R34_SW USA_R34_NW USA_R50_NE USA_R50_SE USA_R50_SW USA_R50_NW USA_R64_NE USA_R64_SE USA_R64_SW USA_R64_NW USA_POCI USA_ROCI USA_RMW USA_EYE TOKYO_LAT TOKYO_LON TOKYO_GRADE TOKYO_WIND TOKYO_PRES TOKYO_R50_DIR TOKYO_R50_LONG TOKYO_R50_SHORT TOKYO_R30_DIR TOKYO_R30_LONG TOKYO_R30_SHORT TOKYO_LAND CMA_LAT CMA_LON CMA_CAT CMA_WIND CMA_PRES HKO_LAT HKO_LON HKO_CAT HKO_WIND HKO_PRES NEWDELHI_LAT NEWDELHI_LON NEWDELHI_GRADE NEWDELHI_WIND NEWDELHI_PRES NEWDELHI_CI NEWDELHI_DP NEWDELHI_POCI REUNION_LAT REUNION_LON REUNION_TYPE REUNION_WIND REUNION_PRES REUNION_TNUM REUNION_CI REUNION_RMW REUNION_R34_NE REUNION_R34_SE REUNION_R34_SW REUNION_R34_NW REUNION_R50_NE REUNION_R50_SE REUNION_R50_SW REUNION_R50_NW REUNION_R64_NE REUNION_R64_SE REUNION_R64_SW REUNION_R64_NW BOM_LAT BOM_LON BOM_TYPE BOM_WIND BOM_PRES BOM_TNUM BOM_CI BOM_RMW BOM_R34_NE BOM_R34_SE BOM_R34_SW BOM_R34_NW BOM_R50_NE BOM_R50_SE BOM_R50_SW BOM_R50_NW BOM_R64_NE BOM_R64_SE BOM_R64_SW BOM_R64_NW BOM_ROCI BOM_POCI BOM_EYE BOM_POS_METHOD BOM_PRES_METHOD NADI_LAT NADI_LON NADI_CAT NADI_WIND NADI_PRES WELLINGTON_LAT WELLINGTON_LON WELLINGTON_WIND WELLINGTON_PRES DS824_LAT DS824_LON DS824_STAGE DS824_WIND DS824_PRES TD9636_LAT TD9636_LON TD9636_STAGE TD9636_WIND TD9636_PRES TD9635_LAT TD9635_LON TD9635_WIND TD9635_PRES TD9635_ROCI NEUMANN_LAT NEUMANN_LON NEUMANN_CLASS NEUMANN_WIND NEUMANN_PRES MLC_LAT MLC_LON MLC_CLASS MLC_WIND MLC_PRES USA_GUST BOM_GUST BOM_GUST_PER REUNION_GUST REUNION_GUST_PER USA_SEAHGT USA_SEARAD_NE USA_SEARAD_SE USA_SEARAD_SW USA_SEARAD_NW STORM_SPEED STORM_DIR
1969101S10165 1969 25 SP MM NOT_NAMED 1969-04-11 05:00:00 NR -10.4000 165.100 main 308 307 __________O___ -1 -10.4000 165.100 1 15 5 0
1969101S10165 1969 25 SP MM NOT_NAMED 1969-04-11 06:00:00 TS -10.4806 165.078 main 307 295 O________OP___ jtwc_sh SH341969 -10.5000 165.100 15 -1 -10.5000 165.100 TC 15 -10.4612 165.056 1 14 4 213
1969101S10165 1969 25 SP MM NOT_NAMED 1969-04-11 09:00:00 TS -10.6372 164.944 main 284 284 P________PP___ SH341969 -10.6300 164.960 12 -1 -10.6300 164.960 TC 12 -10.6469 164.922 1 13 4 221
1969101S10165 1969 25 SP MM NOT_NAMED 1969-04-11 11:00:00 TS -10.7380 164.850 1004 bom main 284 273 P_____O__PP___ SH341969 -10.7364 164.857 10 -1 -10.6000 164.900 1004 -10.7364 164.857 TC 10 -10.7750 164.827 1 12 4 223
1969101S10165 1969 25 SP MM NOT_NAMED 1969-04-11 12:00:00 TS -10.7909 164.798 main 273 262 O_____P__OP___ jtwc_sh SH341969 -10.8000 164.800 10 -1 -10.7000 164.831 1004 -10.8000 164.800 TC 10 -10.8410 164.778 1 12 5 219
1969101S10165 1969 25 SP MM NOT_NAMED 1969-04-11 14:00:00 TS -10.9416 164.678 1004 bom main 262 252 P_____O__PP___ SH341969 -10.9509 164.675 10 -1 -10.9000 164.700 1004 -10.9509 164.675 TC 10 -10.9781 164.674 1 11 6 218
1969101S10165 1969 25 SP MM NOT_NAMED 1969-04-11 15:00:00 TS -11.0240 164.616 main 252 242 P_____P__PP___ SH341969 -11.0350 164.608 10 -1 -11.0000 164.639 1003 -11.0350 164.608 TC 10 -11.0497 164.619 1 10 7 217
1969101S10165 1969 25 SP MM NOT_NAMED 1969-04-11 17:00:00 TS -11.2036 164.481 1003 bom main 244 233 P_____O__PO___ SH341969 -11.2114 164.469 10 -1 -11.2000 164.500 1003 -11.2114 164.469 TC 10 -11.2000 164.500 1 10 7 217
1969101S10165 1969 25 SP MM NOT_NAMED 1969-04-11 18:00:00 TS -11.2958 164.408 main 236 228 O_____P__OP___ jtwc_sh SH341969 -11.3000 164.400 10 -1 -11.3000 164.402 1003 -11.3000 164.400 TC 10 -11.2791 164.436 1 9 7 218
1969101S10165 1969 25 SP MM NOT_NAMED 1969-04-11 20:00:00 TS -11.4787 164.259 1003 bom main 231 221 P_____O__PP___ SH341969 -11.4667 164.267 8 -1 -11.5000 164.200 1003 -11.4667 164.267 TC 8 -11.4438 164.302 1 8 7 217
1969101S10165 1969 25 SP MM NOT_NAMED 1969-04-11 21:00:00 TS -11.5713 164.189 main 225 215 P_____P__PP___ SH341969 -11.5500 164.200 7 -1 -11.6054 164.120 1003 -11.5500 164.200 TC 7 -11.5285 164.233 1 8 7 216
1969101S10165 1969 25 SP MM NOT_NAMED 1969-04-11 23:00:00 TS -11.7501 164.057 1003 bom main 226 216 P_____O__PP___ SH341969 -11.7167 164.067 5 -1 -11.8000 164.000 1003 -11.7167 164.067 TC 5 -11.7001 164.093 1 7 6 215
1969101S10165 1969 25 SP MM NOT_NAMED 1969-04-12 00:00:00 TS -11.8321 163.997 main 216 213 O_____P__OP___ jtwc_sh SH341969 -11.8000 164.000 5 -1 -11.8746 163.964 1003 -11.8000 164.000 TC 5 -11.7861 164.023 1 7 6 217
1969101S10165 1969 25 SP MM NOT_NAMED 1969-04-12 02:00:00 TS -11.9838 163.877 1003 bom main 220 211 P_____O__PP___ SH341969 -11.9721 163.856 5 -1 -12.0000 163.900 1003 -11.9721 163.856 TC 5 -11.9563 163.887 1 6 6 219
1969101S10165 1969 25 SP MM NOT_NAMED 1969-04-12 03:00:00 TS -12.0583 163.812 main 218 210 P_____P__PP___ SH341969 -12.0575 163.785 5 -1 -12.0721 163.836 1003 -12.0575 163.785 TC 5 -12.0395 163.822 1 5 6 220
1969101S10165 1969 25 SP MM NOT_NAMED 1969-04-12 05:00:00 TS -12.1994 163.690 1003 bom main 218 218 P_____O__PO___ SH341969 -12.2224 163.655 5 -1 -12.2000 163.700 1003 -12.2224 163.655 TC 5 -12.2000 163.700 1 5 5 219
1969101S10165 1969 25 SP MM NOT_NAMED 1969-04-12 06:00:00 TS -12.2608 163.642 main 219 219 O_____P__OP___ jtwc_sh SH341969 -12.3000 163.600 5 -1 -12.2358 163.659 1003 -12.3000 163.600 TC 5 -12.2684 163.651 1 5 4 214
1969101S10165 1969 25 SP MM NOT_NAMED 1969-04-12 08:00:00 TS -12.3801 163.568 1003 bom main 228 221 P_____O__PP___ SH341969 -12.4412 163.523 5 -1 -12.3000 163.600 1003 -12.4412 163.523 TC 5 -12.3980 163.561 1 6 4 209
1969101S10165 1969 25 SP MM NOT_NAMED 1969-04-12 09:00:00 TS -12.4439 163.534 main 221 221 P_____P__PP___ SH341969 -12.5075 163.492 5 -1 -12.3588 163.567 1003 -12.5075 163.492 TC 5 -12.4606 163.520 1 6 4 207
1969101S10165 1969 25 SP MM NOT_NAMED 1969-04-12 11:00:00 TS -12.5763 163.469 1004 bom main 240 234 P_____O__PP___ SH341969 -12.6359 163.434 5 -1 -12.5000 163.500 1004 -12.6359 163.434 TC 5 -12.5849 163.442 1 7 4 206
1969101S10165 1969 25 SP MM NOT_NAMED 1969-04-12 12:00:00 TS -12.6418 163.435 main 234 234 O_____P__OP___ jtwc_sh SH341969 -12.7000 163.400 5 -1 -12.5612 163.472 1003 -12.7000 163.400 TC 5 -12.6479 163.404 1 7 5 211
1969101S10165 1969 25 SP MM NOT_NAMED 1969-04-12 14:00:00 TS -12.7777 163.350 1003 bom main 254 249 P_____O__PP___ SH341969 -12.8225 163.308 6 -1 -12.7000 163.400 1003 -12.8225 163.308 TC 6 -12.7793 163.327 1 8 5 212
1969101S10165 1969 25 SP MM NOT_NAMED 1969-04-12 15:00:00 TS -12.8533 163.299 main 259 254 P_____P__PP___ SH341969 -12.8850 163.257 7 -1 -12.7975 163.336 1002 -12.8850 163.257 TC 7 -12.8490 163.287 1 9 6 213
1969101S10165 1969 25 SP MM NOT_NAMED 1969-04-12 17:00:00 TS -13.0127 163.192 1002 bom main 265 265 P_____O__PO___ SH341969 -13.0219 163.153 9 -1 -13.0000 163.200 1002 -13.0219 163.153 TC 9 -13.0000 163.200 1 10 6 213
1969101S10165 1969 25 SP MM NOT_NAMED 1969-04-12 18:00:00 TS -13.0915 163.142 main 271 271 O_____P__OP___ jtwc_sh SH341969 -13.1000 163.100 10 -1 -13.0746 163.159 1002 -13.1000 163.100 TC 10 -13.0829 163.150 1 10 5 210
1969101S10165 1969 25 SP MM NOT_NAMED 1969-04-12 20:00:00 TS -13.2494 163.053 1002 bom main 282 282 P_____O__PP___ SH341969 -13.2842 163.005 11 -1 -13.2000 163.100 1002 -13.2842 163.005 TC 11 -13.2591 163.043 1 12 5 209
1969101S10165 1969 25 SP MM NOT_NAMED 1969-04-12 21:00:00 TS -13.3311 163.009 main 290 290 P_____P__PP___ SH341969 -13.3850 162.957 12 -1 -13.2558 163.077 1002 -13.3850 162.957 TC 12 -13.3521 162.988 1 13 6 208
1969101S10165 1969 25 SP MM NOT_NAMED 1969-04-12 23:00:00 TS -13.5100 162.909 1003 bom main 309 309 P_____O__PP___ SH341969 -13.5947 162.856 14 -1 -13.4000 163.000 1003 -13.5947 162.856 TC 14 -13.5475 162.872 1 15 7 209
1969101S10165 1969 25 SP MM NOT_NAMED 1969-04-13 00:00:00 TS -13.6134 162.845 main 318 318 O_____P__OP___ jtwc_sh SH341969 -13.7000 162.800 15 -1 -13.5176 162.910 1002 -13.7000 162.800 TC 15 -13.6496 162.813 1 15 8 213
1969101S10165 1969 25 SP MM NOT_NAMED 1969-04-13 02:00:00 TS -13.8384 162.694 1002 bom main 338 338 P_____O__PP___ SH341969 -13.8946 162.669 16 -1 -13.8000 162.700 1002 -13.8946 162.669 TC 16 -13.8622 162.690 1 17 8 212
1969101S10165 1969 25 SP MM NOT_NAMED 1969-04-13 03:00:00 TS -13.9547 162.622 main 359 359 P_____P__PP___ SH341969 -13.9925 162.600 17 -1 -13.9388 162.625 1001 -13.9925 162.600 TC 17 -13.9724 162.628 1 18 8 210
1969101S10165 1969 25 SP MM NOT_NAMED 1969-04-13 05:00:00 TS -14.1901 162.482 1001 bom main 381 380 P_____O__PO___ SH341969 -14.1943 162.464 19 -1 -14.2000 162.500 1001 -14.1943 162.464 TC 19 -14.2000 162.500 1 20 8 210
1969101S10165 1969 25 SP MM NOT_NAMED 1969-04-13 06:00:00 TS -14.3025 162.416 main 392 392 O_____P__OP___ jtwc_sh SH341969 -14.3000 162.400 20 -1 -14.3025 162.433 1001 -14.3000 162.400 TC 20 -14.3099 162.446 1 20 8 208
1969101S10165 1969 25 SP MM NOT_NAMED 1969-04-13 08:00:00 TS -14.5214 162.301 1001 bom main 414 414 P_____O__PP___ SH341969 -14.5200 162.303 21 -1 -14.5000 162.300 1001 -14.5200 162.303 TC 21 -14.5369 162.339 1 22 8 206
1969101S10165 1969 25 SP MM NOT_NAMED 1969-04-13 09:00:00 TS -14.6384 162.245 main 425 425 P_____P__PP___ SH341969 -14.6349 162.257 22 -1 -14.6254 162.233 1001 -14.6349 162.257 TC 22 -14.6543 162.284 1 23 8 205
1969101S10165 1969 25 SP MM NOT_NAMED 1969-04-13 11:00:00 TS -14.8843 162.130 1002 bom main 459 459 P_____O__PP___ SH341969 -14.8750 162.159 24 -1 -14.9000 162.100 1002 -14.8750 162.159 TC 24 -14.8971 162.166 1 25 8 205
1969101S10165 1969 25 SP MM NOT_NAMED 1969-04-13 12:00:00 TS -15.0112 162.067 main 470 470 O_____P__OP___ jtwc_sh SH341969 -15.0000 162.100 25 -1 -15.0333 162.033 1001 -15.0000 162.100 TC 25 -15.0229 162.103 1 25 9 206
1969101S10165 1969 25 SP MM NOT_NAMED 1969-04-13 14:00:00 TS -15.2738 161.936 1001 bom main 497 497 P_____O__PP___ SH341969 -15.2533 161.965 26 -1 -15.3000 161.900 1001 -15.2533 161.965 TC 26 -15.2837 161.961 1 27 9 206
1969101S10165 1969 25 SP MM NOT_NAMED 1969-04-13 15:00:00 TS -15.4088 161.866 main 498 498 P_____P__PP___ SH341969 -15.3849 161.887 27 -1 -15.4279 161.844 1000 -15.3849 161.887 TC 27 -15.4190 161.881 1 28 10 208
1969101S10165 1969 25 SP MM NOT_NAMED 1969-04-13 17:00:00 TS -15.6911 161.700 1000 bom main 524 524 P_____O__PO___ SH341969 -15.6583 161.706 29 -1 -15.7000 161.700 1000 -15.6583 161.706 TC 29 -15.7000 161.700 1 30 10 211
1969101S10165 1969 25 SP MM NOT_NAMED 1969-04-13 18:00:00 TS -15.8388 161.594 main 537 537 O_____P__OP___ jtwc_sh SH341969 -15.8000 161.600 30 -1 -15.8588 161.577 1000 -15.8000 161.600 TC 30 -15.8352 161.595 1 30 11 217
1969101S10165 1969 25 SP MM NOT_NAMED 1969-04-13 20:00:00 TS -16.1415 161.348 1000 bom main 545 533 P_____O__PP___ SH341969 -16.0813 161.357 30 -1 -16.2000 161.300 1000 -16.0813 161.357 TC 30 -16.1140 161.361 1 30 12 218
1969101S10165 1969 25 SP MM NOT_NAMED 1969-04-13 21:00:00 TS -16.2961 161.222 main 533 518 P_____P__PP___ SH341969 -16.2275 161.222 30 -1 -16.3666 161.203 1000 -16.2275 161.222 TC 30 -16.2586 161.235 1 30 12 218
1969101S10165 1969 25 SP MM NOT_NAMED 1969-04-13 23:00:00 TS -16.6137 160.959 1001 bom main 518 515 P_____O__PP___ SH341969 -16.5360 160.941 30 -1 -16.7000 161.000 1001 -16.5360 160.941 TC 30 -16.5603 160.967 1 30 12 219
1969101S10165 1969 25 SP MM NOT_NAMED 1969-04-14 00:00:00 TS -16.7781 160.814 main 515 506 O_____P__OP___ jtwc_sh SH341969 -16.7000 160.800 30 -1 -16.8721 160.844 1001 -16.7000 160.800 TC 30 -16.7184 160.827 1 30 13 220
1969101S10165 1969 25 SP MM NOT_NAMED 1969-04-14 02:00:00 TS -17.1067 160.531 1001 bom main 513 506 P_____O__PP___ SH341969 -17.0453 160.539 30 -1 -17.2000 160.500 1001 -17.0453 160.539 TC 30 -17.0514 160.539 1 30 13 219
1969101S10165 1969 25 SP MM NOT_NAMED 1969-04-14 03:00:00 TS -17.2694 160.395 main 506 500 P_____P__PP___ SH341969 -17.2274 160.407 30 -1 -17.3303 160.359 1001 -17.2274 160.407 TC 30 -17.2273 160.393 1 30 13 218
1969101S10165 1969 25 SP MM NOT_NAMED 1969-04-14 05:00:00 TS -17.6093 160.123 1001 bom main 509 502 P_____O__PO___ SH341969 -17.6056 160.139 30 -1 -17.6000 160.100 1001 -17.6056 160.139 TC 30 -17.6000 160.100 1 30 13 217
1969101S10165 1969 25 SP EA NOT_NAMED 1969-04-14 06:00:00 TS -17.7940 159.986 main 504 501 O_____P__OP___ jtwc_sh SH341969 -17.8000 160.000 30 -1 -17.7842 159.972 1000 -17.8000 160.000 TC 30 -17.7859 159.960 1 30 14 216
1969101S10165 1969 25 SP EA NOT_NAMED 1969-04-14 08:00:00 TS -18.1734 159.698 1000 bom main 508 508 P_____O__PP___ SH341969 -18.1704 159.702 30 -1 -18.2000 159.700 1000 -18.1704 159.702 TC 30 -18.1770 159.677 1 30 14 216
1969101S10165 1969 25 SP EA NOT_NAMED 1969-04-14 09:00:00 TS -18.3684 159.545 main 517 513 P_____P__PP___ SH341969 -18.3625 159.550 30 -1 -18.3946 159.536 1000 -18.3625 159.550 TC 30 -18.3826 159.535 1 30 15 215
1969101S10165 1969 25 SP EA NOT_NAMED 1969-04-14 11:00:00 TS -18.7856 159.239 1000 bom main 530 526 P_____O__PP___ SH341969 -18.7745 159.247 30 -1 -18.8000 159.200 1000 -18.7745 159.247 TC 30 -18.8152 159.248 1 30 16 214
1969101S10165 1969 25 SP EA NOT_NAMED 1969-04-14 12:00:00 TS -19.0125 159.093 main 533 530 O_____P__OP___ jtwc_sh SH341969 -19.0000 159.100 30 -1 -19.0200 159.059 1000 -19.0000 159.100 TC 30 -19.0426 159.105 1 30 16 209
1969101S10165 1969 25 SP EA NOT_NAMED 1969-04-14 14:00:00 TS -19.4950 158.819 1000 bom main 550 549 P_____O__PP___ SH341969 -19.4853 158.830 30 -1 -19.5000 158.800 1000 -19.4853 158.830 TC 30 -19.5208 158.820 1 30 17 208
1969101S10165 1969 25 SP EA NOT_NAMED 1969-04-14 15:00:00 TS -19.7501 158.686 main 556 556 P_____P__PP___ SH341969 -19.7474 158.699 30 -1 -19.7315 158.683 1000 -19.7474 158.699 TC 30 -19.7720 158.679 1 30 18 205
1969101S10165 1969 25 SP EA NOT_NAMED 1969-04-14 17:00:00 TS -20.3138 158.408 1001 bom main 583 583 P_____O__PO___ SH341969 -20.3056 158.436 30 -1 -20.3000 158.400 1001 -20.3056 158.436 TC 30 -20.3000 158.400 1 30 20 205
1969101S10165 1969 25 SP EA NOT_NAMED 1969-04-14 18:00:00 TS -20.6337 158.247 main 605 605 O_____P__OP___ jtwc_sh SH341969 -20.6000 158.300 30 -1 -20.6885 158.185 1001 -20.6000 158.300 TC 30 -20.5798 158.248 1 30 23 205
1969101S10165 1969 25 SP EA NOT_NAMED 1969-04-14 20:00:00 TS -21.3504 157.883 1001 bom main 604 567 P_____O__PP___ SH341969 -21.2151 157.997 30 -1 -21.6000 157.700 1001 -21.2151 157.997 TC 30 -21.1697 157.942 1 30 24 205
1969101S10165 1969 25 SP EA NOT_NAMED 1969-04-14 21:00:00 TS -21.7315 157.701 main 567 496 P_____P__PP___ SH341969 -21.5351 157.843 30 -1 -22.1076 157.471 1001 -21.5351 157.843 TC 30 -21.4765 157.791 1 30 24 203
1969101S10165 1969 25 SP EA NOT_NAMED 1969-04-14 23:00:00 TS -22.4633 157.368 1001 bom main 490 469 P_____O__PP___ SH341969 -22.1812 157.541 30 -1 -23.0000 157.100 1001 -22.1812 157.541 TC 30 -22.1056 157.498 1 30 23 203
1969101S10165 1969 25 SP EA NOT_NAMED 1969-04-15 00:00:00 TS -22.7725 157.231 main 455 416 O_____P__OP___ jtwc_sh SH341969 -22.5000 157.400 30 -1 -23.2377 156.996 1001 -22.5000 157.400 TC 30 -22.4247 157.360 1 30 18 201
1969101S10165 1969 25 SP EA NOT_NAMED 1969-04-15 02:00:00 TS -23.2840 157.020 1001 bom main 411 392 P_____O__PP___ SH341969 -23.1132 157.134 30 -1 -23.5000 156.900 1001 -23.1132 157.134 TC 30 -23.0637 157.105 1 30 16 200
1969101S10165 1969 25 SP EA NOT_NAMED 1969-04-15 03:00:00 TS -23.5307 156.932 main 392 361 P_____P__PP___ SH341969 -23.4149 157.012 30 -1 -23.6612 156.864 1001 -23.4149 157.012 TC 30 -23.3804 156.992 1 30 15 197
1969101S10165 1969 25 SP EA NOT_NAMED 1969-04-15 05:00:00 TS -24.0132 156.783 1001 bom main 361 345 P_____O__PO___ SH341969 -24.0083 156.794 30 -1 -24.0000 156.800 1001 -24.0083 156.794 TC 30 -24.0000 156.800 1 30 15 195
1969101S10165 1969 25 SP EA NOT_NAMED 1969-04-15 06:00:00 TS -24.2564 156.710 main 342 324 O_____P__OP___ jtwc_sh SH341969 -24.3000 156.700 30 -1 -24.1867 156.741 1001 -24.3000 156.700 TC 30 -24.2953 156.709 1 30 16 196
1969101S10165 1969 25 SP EA NOT_NAMED 1969-04-15 08:00:00 TS -24.7689 156.549 1001 bom main 313 312 P_____O__PP___ SH341969 -24.8799 156.505 30 -1 -24.6000 156.600 1001 -24.8799 156.505 TC 30 -24.8769 156.558 1 30 16 195
1969101S10165 1969 25 SP EA NOT_NAMED 1969-04-15 09:00:00 TS -25.0269 156.478 main 312 302 P_____P__PP___ SH341969 -25.1649 156.425 30 -1 -24.8092 156.517 1001 -25.1649 156.425 TC 30 -25.1628 156.500 1 30 16 191
1969101S10165 1969 25 SP EA NOT_NAMED 1969-04-15 11:00:00 TS -25.5602 156.377 1002 bom main 308 308 P_____O__PP___ SH341969 -25.7250 156.319 30 -1 -25.3000 156.400 1002 -25.7250 156.319 TC 30 -25.7234 156.418 1 30 17 187
1969101S10165 1969 25 SP EA NOT_NAMED 1969-04-15 12:00:00 TS -25.8415 156.362 main 314 314 O_____P__OP___ jtwc_sh SH341969 -26.0000 156.300 30 -1 -25.6096 156.415 1002 -26.0000 156.300 TC 30 -25.9977 156.397 1 30 18 0
1969101S10165 1969 25 SP EA NOT_NAMED 1969-04-15 14:00:00 TS -26.4327 156.384 1002 bom main 326 319 P_____O__PP___ SH341969 -26.5520 156.323 30 -1 -26.3000 156.500 1002 -26.5520 156.323 TC 30 -26.5332 156.394 1 30 18 178
1969101S10165 1969 25 SP EA NOT_NAMED 1969-04-15 15:00:00 TS -26.7291 156.408 main 319 302 P_____P__PP___ SH341969 -26.8223 156.367 30 -1 -26.6496 156.503 1002 -26.8223 156.367 TC 30 -26.7939 156.414 1 30 18 174
1969101S10165 1969 25 SP EA NOT_NAMED 1969-04-15 17:00:00 TS -27.2998 156.494 1002 bom main 302 295 P_____O__PO___ SH341969 -27.3473 156.509 30 -1 -27.3000 156.500 1002 -27.3473 156.509 TC 30 -27.3000 156.500 1 30 17 171
1969101S10165 1969 25 SP EA NOT_NAMED 1969-04-15 18:00:00 TS -27.5645 156.555 main 302 295 O_____P__OP___ jtwc_sh SH341969 -27.6000 156.600 30 -1 -27.5625 156.520 1001 -27.6000 156.600 TC 30 -27.5598 156.557 1 28 15 166
1969101S10165 1969 25 SP EA NOT_NAMED 1969-04-15 20:00:00 TS -28.0457 156.700 1001 bom main 304 303 P_____O__PP___ SH341969 -28.0933 156.791 26 -1 -28.0000 156.600 1001 -28.0933 156.791 TC 26 -28.0668 156.722 1 26 15 164
1969101S10165 1969 25 SP EA NOT_NAMED 1969-04-15 21:00:00 TS -28.2724 156.789 main 313 313 P_____P__PP___ SH341969 -28.3299 156.905 25 -1 -28.2024 156.637 1001 -28.3299 156.905 TC 25 -28.3125 156.827 1 25 14 158
1969101S10165 1969 25 SP EA NOT_NAMED 1969-04-15 23:00:00 TS -28.7089 157.013 1001 bom main 331 331 P_____O__PP___ SH341969 -28.7833 157.162 21 -1 -28.6000 156.800 1001 -28.7833 157.162 TC 21 -28.7849 157.074 1 22 15 154
1969101S10165 1969 25 SP EA NOT_NAMED 1969-04-16 00:00:00 TS -28.9271 157.156 main 350 350 O_____P__OP___ jtwc_sh SH341969 -29.0000 157.300 20 -1 -28.8255 156.968 1000 -29.0000 157.300 TC 20 -29.0102 157.212 1 21 16 148
1969101S10165 1969 25 SP EA NOT_NAMED 1969-04-16 02:00:00 TS -29.3793 157.485 1000 bom main 382 382 P_____O__PP___ SH341969 -29.4375 157.584 18 -1 -29.3000 157.400 1000 -29.4375 157.584 TC 18 -29.4355 157.514 1 18 16 147
1969101S10165 1969 25 SP EA NOT_NAMED 1969-04-16 03:00:00 TS -29.5997 157.657 main 404 404 P_____P__PP___ SH341969 -29.6450 157.735 17 -1 -29.5441 157.595 999 -29.6450 157.735 TC 17 -29.6342 157.673 1 17 16 144
1969101S10165 1969 25 SP EA NOT_NAMED 1969-04-16 05:00:00 TS -30.0098 158.014 998 bom main 442 442 P_____O__PO___ SH341969 -30.0281 158.045 15 -1 -30.0000 158.000 998 -30.0281 158.045 TC 15 -30.0000 158.000 1 15 15 142
1969101S10165 1969 25 SP EA NOT_NAMED 1969-04-16 06:00:00 TS -30.1897 158.199 main 467 467 O_____P__OP___ jtwc_sh SH341969 -30.2000 158.200 15 -1 -30.1825 158.231 997 -30.2000 158.200 TC 15 -30.1661 158.165 1 15 14 136
1969101S10165 1969 25 SP EA NOT_NAMED 1969-04-16 08:00:00 TS -30.5044 158.565 997 bom main 512 512 P_____O__PP___ SH341969 -30.5014 158.505 15 -1 -30.5000 158.700 997 -30.5014 158.505 TC 15 -30.4674 158.497 1 15 13 134
1969101S10165 1969 25 SP EA NOT_NAMED 1969-04-16 09:00:00 TS -30.6499 158.749 main 523 523 P_____P__PP___ SH341969 -30.6352 158.655 15 -1 -30.6775 158.924 996 -30.6352 158.655 TC 15 -30.6045 158.663 1 15 12 132
1969101S10165 1969 25 SP EA NOT_NAMED 1969-04-16 11:00:00 TS -30.9213 159.100 996 bom main 566 566 P_____O__PP___ SH341969 -30.8820 158.952 15 -1 -31.0000 159.300 996 -30.8820 158.952 TC 15 -30.8562 158.995 1 15 12 132
1969101S10165 1969 25 SP EA NOT_NAMED 1969-04-16 12:00:00 TS -31.0432 159.266 main 587 587 O_____P__OP___ jtwc_sh SH341969 -31.0000 159.100 15 -1 -31.1211 159.419 996 -31.0000 159.100 TC 15 -30.9727 159.162 1 15 10 130
1969101S10165 1969 25 SP EA NOT_NAMED 1969-04-16 14:00:00 NR -31.2459 159.548 996 bom main 608 608 ______O___P___ SH341969 -1 -31.3000 159.600 996 TC -31.1919 159.496 1 15 9 129
1969101S10165 1969 25 SP EA NOT_NAMED 1969-04-16 15:00:00 NR -31.3340 159.690 main 627 627 ______P___P___ SH341969 -1 -31.3717 159.716 996 TC -31.2964 159.664 1 15 9 123
1969101S10165 1969 25 SP MM NOT_NAMED 1969-04-16 17:00:00 NR -31.5000 160.000 996 bom main 655 ______O___O___ SH341969 -1 -31.5000 160.000 996 TC -31.5000 160.000 1 15 9 122

Digital Typhoon Data and Search

About IBTrACS Database

This database is a web-friendly format of International Best Track Archive for Climate Stewardship (IBTrACS), a global best track data archive curated by NOAA dating back to 1842.

Updated: 2021-10-25